Solomons, Maryland
Current Conditions -  °F | °C
As of 5:52 AM on Wednesday 22 Oct 2014 (Local Time) from KNHK Reporting Station
Overcast Overcast  
Wind Chill: 55°   Ceiling: 1100
Heat Index: 55°   Visibility: 9mi
Dew Point: 51°   Wind: 18mph
Humidity: 86%   Direction: 330°NNW
Pressure: 29.82"   Gusts: NA
Location:  38.32°N, 76.46°W
Report Text: KNHK 220952Z 33016KT 9SM FEW008 BKN011 OVC039 13/11 A2982 RMK AO2 SLP099 T01280106
Loading
Personal Weather Stations






























Interactive Weather Map
Tropical Storm Tracking
New forecast layout! Learn more

10-Day Weather Forecast

Advertisements
Track Severe Weather on mobile